Nearby METAR (Airport) Reports

 

KPRN - Greenville, Alabama, USA
Distance from station: WNW 17mi, 28km
Updated: Thu, 21-Jun-2018 6:56am CDT
Clear
Clear
 Wind from WSW
Wind: WSW 3 mph , 6 km/h
Temperature: 77°F , 25°C
Dew Point: 72°F , 22°C
Humidity: 83%
Barometer: 29.93 inHg , 1013.5 hPa
Clouds: Clear
Visibility: 9 miles , 14 km
2018/06/21 11:56 KPRN 211156Z AUTO 24003KT 9SM CLR 25/22 A2993 RMK AO2 SLP130 T02500222 10261 20239 53009
KTOI - Troy, Alabama, USA
Distance from station: ENE 21mi, 34km
Updated: Thu, 21-Jun-2018 6:53am CDT
Clear
Clear
 Wind from SW
Wind: SW 3 mph , 6 km/h
Temperature: 75°F , 24°C
Dew Point: 73°F , 23°C
Humidity: 94%
Barometer: 29.94 inHg , 1013.9 hPa
Clouds: Clear
Visibility: 9 miles , 14 km
2018/06/21 11:53 KTOI 211153Z AUTO 22003KT 9SM CLR 24/23 A2994 RMK AO2 SLP133 T02390228 10250 20222 53009
K79J - Andalusia/Opp Ar, Alabama, USA
Distance from station: S 29mi, 47km
Updated: Thu, 21-Jun-2018 6:56am CDT
Clear
Clear
 Wind from W
Wind: W 7 mph , 11 km/h
Temperature: 81°F , 27°C
Heat Index: 86°F , 30°C
Dew Point: 73°F , 23°C
Humidity: 79%
Barometer: 29.94 inHg , 1013.9 hPa
Clouds: Clear
Visibility: 10 miles , 16 km
2018/06/21 11:56 K79J 211156Z AUTO 26006KT 10SM CLR 27/23 A2994 RMK AO2 SLP133 T02670228 10278 20256 53008
 
KMGM - Montgomery, Alabama, USA
Distance from station: N 39mi, 63km
Updated: Thu, 21-Jun-2018 6:53am CDT
Few Clouds
Few Clouds
 Wind from WSW
Wind: WSW 8 mph , 13 km/h
Temperature: 79°F , 26°C
Dew Point: 73°F , 23°C
Humidity: 84%
Barometer: 29.92 inHg , 1013.2 hPa
Clouds: Few Clouds
Visibility: 10 miles , 16 km
Cloud details: Few Clouds 4700 ft
2018/06/21 11:53 KMGM 211153Z 24007KT 10SM FEW047 26/23 A2992 RMK AO2 SLP128 T02560233 10261 20250 53011
KMXF - Maxwell Afb/Mgm, Alabama, USA
Distance from station: N 44mi, 70km
Updated: Thu, 21-Jun-2018 6:56am CDT
Partly cloudy
Partly cloudy
 Wind from WSW
Wind: WSW 5 mph , 7 km/h
Temperature: 77°F , 25°C
Dew Point: 73°F , 23°C
Humidity: 89%
Barometer: 29.91 inHg , 1012.9 hPa
Clouds: Partly cloudy
Visibility: 10 miles , 16 km
Cloud details: Partly cloudy 4800 ft
2018/06/21 11:56 KMXF 211156Z AUTO 24004KT 10SM SCT048 25/23 A2991 RMK AO2 SLP129 T02530231 10254 20242 52010 $
KLOR - Lowe Ahp/Ft. Ruc, Alabama, USA
Distance from station: SE 44mi, 71km
Updated: Thu, 21-Jun-2018 6:58am CDT
Clear
Clear
 Wind from W
Wind: W 3 mph , 6 km/h
Temperature: 77°F , 25°C
Dew Point: 73°F , 23°C
Humidity: 89%
Barometer: 29.93 inHg , 1013.5 hPa
Clouds: Clear
Visibility: 9 miles , 14 km
2018/06/21 11:58 KLOR 211158Z AUTO 26003KT 9SM CLR 25/23 A2993 RMK AO2 RAB54 SLP116 P0000 60000 T02510232 10258 20225 52010
 
KGZH - Evergreen, Alabama, USA
Distance from station: WSW 46mi, 75km
Updated: Thu, 21-Jun-2018 6:53am CDT
Clear
Clear
 Wind from calm
Wind: Calm
Temperature: 75°F , 24°C
Dew Point: 73°F , 23°C
Humidity: 94%
Barometer: 29.94 inHg , 1013.9 hPa
Clouds: Clear
Visibility: 10 miles , 16 km
2018/06/21 11:53 KGZH 211153Z AUTO 00000KT 10SM CLR 24/23 A2994 RMK AO2 SLP135 T02440228 10250 20228 53009
K0J4 - Florala Muni, Alabama, USA
Distance from station: S 47mi, 76km
Updated: Thu, 21-Jun-2018 6:58am CDT
Clear
Clear
 Wind from calm
Wind: Calm
Temperature: 77°F , 25°C
Dew Point: 73°F , 23°C
Humidity: 89%
Barometer: 29.97 inHg , 1014.9 hPa
Clouds: Clear
Visibility: 10 miles , 16 km
2018/06/21 11:58 K0J4 211158Z AUTO 00000KT 10SM CLR 25/23 A2997 RMK AO2 SLP142 T02500228 10256 20233 53009
KOZR - Ozark/Cairns Aaf, Alabama, USA
Distance from station: SE 49mi, 78km
Updated: Thu, 21-Jun-2018 6:56am CDT
Clear
Clear
 Wind from W
Wind: W 3 mph , 6 km/h
Temperature: 75°F , 24°C
Dew Point: 73°F , 23°C
Humidity: 94%
Barometer: 29.94 inHg , 1013.9 hPa
Clouds: Clear
Visibility: 10 miles , 16 km
2018/06/21 11:56 KOZR 211156Z AUTO 26003KT 10SM CLR 24/23 A2994 RMK AO2 SLP138 T02440233 10260 20232 52010
 
KHEY - Ft Rucker/Hanche, Alabama, USA
Distance from station: ESE 49mi, 79km
Updated: Thu, 21-Jun-2018 6:58am CDT

 
2018/06/21 11:58 KHEY 211158Z AUTO M M M M M M RMK AO2 SLPNO PWINO PNO FZRANO TSNO $
KDHN - Dothan, Alabama, USA
Distance from station: ESE 61mi, 97km
Updated: Thu, 21-Jun-2018 6:53am CDT
Clear
Clear
 Wind from W
Wind: W 9 mph , 15 km/h
Temperature: 79°F , 26°C
Dew Point: 73°F , 23°C
Humidity: 84%
Barometer: 29.97 inHg , 1014.9 hPa
Clouds: Clear
Visibility: M 10 miles , 16 km
2018/06/21 11:53 KDHN 211153Z 28008KT 10SM CLR 26/23 A2997 RMK AO2 SLP142 T02610228 10278 20244 53010
KCEW - Crestview, Florida, USA
Distance from station: S 66mi, 107km
Updated: Thu, 21-Jun-2018 6:53am CDT
Clear
Clear
 Wind from W
Wind: W 3 mph , 6 km/h
Temperature: 77°F , 25°C
Dew Point: 73°F , 23°C
Humidity: 89%
Barometer: 29.96 inHg , 1014.6 hPa
Clouds: Clear
Visibility: 10 miles , 16 km
2018/06/21 11:53 KCEW 211153Z AUTO 28003KT 10SM CLR 25/23 A2996 RMK AO2 SLP140 T02500228 10261 20222 53010
 
KEUF - Eufaula, Alabama, USA
Distance from station: ENE 73mi, 118km
Updated: Thu, 21-Jun-2018 6:58am CDT
Clear
Clear
 Wind from varies
Wind: varies 3 mph , 6 km/h
Temperature: 81°F , 27°C
Heat Index: 86°F , 30°C
Dew Point: 73°F , 23°C
Humidity: 79%
Barometer: 29.92 inHg , 1013.2 hPa
Clouds: Clear
Visibility: 10 miles , 16 km
2018/06/21 11:58 KEUF 211158Z AUTO VRB03KT 10SM CLR 27/23 A2992 RMK AO2 SLP126 T02670233 10267 20222 53010 $
KJKA - Gulf Shores, Alabama, USA
Distance from station: SSW 132mi, 212km
Updated: Thu, 21-Jun-2018 7:15am CDT
Clear
Clear
 
Temperature: 82°F , 28°C
Heat Index: 90°F , 32°C
Dew Point: 77°F , 25°C
Humidity: 84%
Barometer: 29.95 inHg , 1014.2 hPa
Clouds: Clear
Visibility: 10 miles , 16 km
2018/06/21 12:15 KJKA 211215Z AUTO 10SM CLR 28/25 A2995 RMK AO2 T02750245
KLSF - Ft Benning/Colum, Georgia, USA
Distance from station: SNE 89mi, 143km
Updated: Thu, 21-Jun-2018 6:56am CDT
Clear
Clear
 Wind from calm
Wind: Calm
Temperature: 75°F , 24°C
Dew Point: 75°F , 24°C
Humidity: 100%
Barometer: 29.90 inHg , 1012.5 hPa
Clouds: Clear
Visibility: 10 miles , 16 km
2018/06/21 11:56 KLSF 211156Z AUTO 00000KT 10SM CLR 24/24 A2990 RMK AO2 SLP128 T02410241 10241 20217 53010
 
KMOB - Mobile/Bates, Alabama, USA
Distance from station: SW 125mi, 202km
Updated: Thu, 21-Jun-2018 6:56am CDT
Mostly cloudy
Mostly cloudy
 Wind from calm
Wind: Calm
Temperature: 77°F , 25°C
Dew Point: 75°F , 24°C
Humidity: 94%
Barometer: 29.95 inHg , 1014.2 hPa
Clouds: Mostly cloudy
Visibility: 7 miles , 11 km
Cloud details: Mostly cloudy 2000 ft
Mostly cloudy 25000 ft
2018/06/21 11:56 KMOB 211156Z 00000KT 7SM BKN020 BKN250 25/24 A2995 RMK AO2 SLP139 T02500239 10256 20239 53007
KNMM - Meridian Nas, Mississippi, USA
Distance from station: WNW 151mi, 243km
Updated: Thu, 21-Jun-2018 6:56am CDT
Overcast
Overcast
 Wind from WSW
Wind: WSW 7 mph , 11 km/h
Temperature: 79°F , 26°C
Dew Point: 75°F , 24°C
Humidity: 89%
Barometer: 29.93 inHg , 1013.5 hPa
Clouds: Overcast
Visibility: 10 miles , 16 km
Cloud details: Mostly cloudy 18000 ft
Overcast 26000 ft
2018/06/21 11:56 KNMM 211156Z 25006KT 10SM BKN180 OVC260 26/24 A2993 RMK AO2 SLP140 T02560239 10256 20250 53009 $
KQHY - Hurlbert (Ft Walton Bch), Florida, USA
Distance from station: S 94mi, 151km
Updated: Thu, 21-Jun-2018 6:56am CDT
Few Clouds
Few Clouds
 Wind from WNW
Wind: WNW 3 mph , 6 km/h
Temperature: 82°F , 28°C
Heat Index: 89°F , 32°C
Dew Point: 75°F , 24°C
Humidity: 79%
Barometer: 29.95 inHg , 1014.2 hPa
Clouds: Few Clouds
Visibility: 10 miles , 16 km
Cloud details: Few Clouds 2400 ft
2018/06/21 11:56 KQHY 211156Z AUTO 30003KT 10SM FEW024 28/24 A2995 RMK AO2 SLP148 T02760244 10279 20264 53012 $
 
KTCL - Tuscaloosa, Alabama, USA
Distance from station: NNW 129mi, 207km
Updated: Thu, 21-Jun-2018 6:53am CDT
Overcast
Overcast
 Wind from calm
Wind: Calm
Temperature: 77°F , 25°C
Dew Point: 73°F , 23°C
Humidity: 89%
Barometer: 29.91 inHg , 1012.9 hPa
Clouds: Overcast
Visibility: 8 miles , 13 km
Cloud details: Mostly cloudy 3200 ft
Overcast 5500 ft
2018/06/21 11:53 KTCL 211153Z 00000KT 8SM BKN032 OVC055 25/23 A2991 RMK AO2 SLP126 60000 T02500233 10256 20244 53011
KECP - Panama City, Florida, USA
Distance from station: SSE 122mi, 196km
Updated: Thu, 21-Jun-2018 6:53am CDT
Clear
Clear
 Wind from WNW
Wind: WNW 3 mph , 6 km/h
Temperature: 79°F , 26°C
Dew Point: 75°F , 24°C
Humidity: 89%
Barometer: 29.93 inHg , 1013.5 hPa
Clouds: Clear
Visibility: 10 miles , 16 km
2018/06/21 11:53 KECP 211153Z 30003KT 10SM CLR 26/24 A2993 RMK AO2 SLP146 T02610244 10261 20239 53008
KCBM - Columbus Afb, Mississippi, USA
Distance from station: NW 175mi, 282km
Updated: Thu, 21-Jun-2018 7:18am CDT
Light rain, Few clouds
Light rain, Few clouds
 Wind from calm
Wind: Calm
Temperature: 70°F , 21°C
Dew Point: 70°F , 21°C
Humidity: 100%
Barometer: 29.91 inHg , 1012.9 hPa
Summary: Light rain
Clouds: Few Clouds
Visibility: 10 miles , 16 km
Cloud details: Few Clouds 300 ft
2018/06/21 12:18 KCBM 211218Z AUTO 00000KT 10SM -RA FEW003 21/21 A2991 RMK AO2 SLP130 $
 
KBHM - Birmingham, Alabama, USA
Distance from station: N 132mi, 212km
Updated: Thu, 21-Jun-2018 7:17am CDT
Overcast
Overcast
 Wind from N
Wind: N 7 mph , 11 km/h
Temperature: 75°F , 24°C
Dew Point: 73°F , 23°C
Humidity: 94%
Barometer: 29.96 inHg , 1014.6 hPa
Clouds: Overcast
Visibility: 10 miles , 16 km
Cloud details: Few Clouds 800 ft
Mostly cloudy 2300 ft
Overcast 3200 ft
2018/06/21 12:17 KBHM 211217Z 35006KT 10SM FEW008 BKN023 OVC032 24/23 A2996 RMK AO2 LTG DSNT N AND NW RAB07E16 P0000 T02390228
KAAF - Apalachicola, Florida, USA
Distance from station: SSE 156mi, 250km
Updated: Thu, 21-Jun-2018 6:53am CDT
Clear
Clear
 Wind from W
Wind: W 6 mph , 9 km/h
Temperature: 82°F , 28°C
Heat Index: 91°F , 33°C
Dew Point: 79°F , 26°C
Humidity: 89%
Barometer: 29.93 inHg , 1013.5 hPa
Clouds: Clear
Visibility: 10 miles , 16 km
2018/06/21 11:53 KAAF 211153Z AUTO 28005KT 10SM CLR 28/26 A2993 RMK AO2 SLP136 T02780261 10278 20256 53012
KATL - Atlanta, Georgia, USA
Distance from station: NE 177mi, 287km
Updated: Thu, 21-Jun-2018 6:52am CDT
Mostly cloudy
Mostly cloudy
 Wind from SW
Wind: SW 5 mph , 7 km/h
Temperature: 79°F , 26°C
Dew Point: 70°F , 21°C
Humidity: 74%
Barometer: 29.92 inHg , 1013.2 hPa
Clouds: Mostly cloudy
Visibility: 9 miles , 14 km
Cloud details: Partly cloudy 15000 ft
Mostly cloudy 20000 ft
Mostly cloudy 25000 ft
2018/06/21 11:52 KATL 211152Z 22004KT 9SM SCT150 BKN200 BKN250 26/21 A2992 RMK AO2 SLP121 60000 T02560206 10267 20244 53006
 
KGPT - Gulfport, Mississippi, USA
Distance from station: SW 192mi, 309km
Updated: Thu, 21-Jun-2018 6:53am CDT
Clear
Clear
 Wind from calm
Wind: Calm
Temperature: 81°F , 27°C
Heat Index: 87°F , 31°C
Dew Point: 75°F , 24°C
Humidity: 84%
Barometer: 29.93 inHg , 1013.5 hPa
Clouds: Clear
Visibility: 10 miles , 16 km
2018/06/21 11:53 KGPT 211153Z 00000KT 10SM CLR 27/24 A2993 RMK AO2 SLP133 T02670244 10289 20267 52008
KNEW - New Orleans/Lake, Louisiana, USA
Distance from station: SW 255mi, 410km
Updated: Thu, 21-Jun-2018 6:53am CDT
Clear
Clear
 Wind from SSW
Wind: SSW 6 mph , 9 km/h
Temperature: 81°F , 27°C
Heat Index: 87°F , 31°C
Dew Point: 75°F , 24°C
Humidity: 84%
Barometer: 29.93 inHg , 1013.5 hPa
Clouds: Clear
Visibility: 8 miles , 13 km
2018/06/21 11:53 KNEW 211153Z AUTO 21005KT 8SM CLR 27/24 A2993 RMK AO2 SLP129 T02670239 10278 20261 53004
KP92 - Salt Point, Louisiana, USA
Distance from station: SW 347mi, 559km
Updated: Thu, 21-Jun-2018 6:53am CDT

 Wind from varies
Wind: varies 3 mph , 6 km/h
Barometer: 29.90 inHg , 1012.5 hPa
2018/06/21 11:53 KP92 211153Z AUTO VRB03KT A2990 RMK AO1 SLP126 53003